Guss, Iowa
Current Conditions -  °F | °C
As of 6:55 PM on Wednesday 22 Oct 2014 (Local Time) from KICL Reporting Station
Clear Clear  
Wind Chill: 66°   Ceiling: Unl
Heat Index: 66°   Visibility: 10mi
Dew Point: 52°   Wind: 8mph
Humidity: 60%   Direction: 140°SE
Pressure: 30.08"   Gusts: NA
Location:  40.9427°N, 94.8714°W
Report Text: KICL 222355Z AUTO 14007KT 10SM CLR 19/11 A3008 RMK AO2
Loading
Personal Weather Stations






























Interactive Weather Map
Tropical Storm Tracking
New forecast layout! Learn more

10-Day Weather Forecast

Advertisements
Track Severe Weather on mobile